createdAt,value
2023-04-21T00:00:55.272Z,17.05
2023-04-21T00:03:24.305Z,12.68
2023-04-21T00:05:51.980Z,10.95
2023-04-21T00:08:19.563Z,15.63
2023-04-21T00:10:47.171Z,12.43
2023-04-21T00:13:14.509Z,11.35
2023-04-21T00:15:41.892Z,13.20
2023-04-21T00:18:09.837Z,17.63
2023-04-21T00:20:37.519Z,11.95
2023-04-21T00:23:04.650Z,13.88
2023-04-21T00:25:31.814Z,11.18
2023-04-21T00:27:58.971Z,18.00
2023-04-21T00:30:26.206Z,13.63
2023-04-21T00:32:53.493Z,16.08
2023-04-21T00:35:20.671Z,14.98
2023-04-21T00:37:47.781Z,13.30
2023-04-21T00:40:14.929Z,10.75
2023-04-21T00:42:42.119Z,19.02
2023-04-21T00:45:09.309Z,12.73
2023-04-21T00:47:36.593Z,15.75
2023-04-21T00:50:04.263Z,14.35
2023-04-21T00:52:31.758Z,13.25
2023-04-21T00:54:58.966Z,15.68
2023-04-21T00:57:26.230Z,11.02
2023-04-21T00:59:53.327Z,16.60
2023-04-21T01:02:20.662Z,12.60
2023-04-21T01:04:48.349Z,14.48
2023-04-21T01:07:15.469Z,16.90
2023-04-21T01:09:42.553Z,13.57
2023-04-21T01:12:10.635Z,13.02
2023-04-21T01:14:38.851Z,13.73
2023-04-21T01:17:07.688Z,15.95
2023-04-21T01:19:37.045Z,16.08
2023-04-21T01:22:04.278Z,12.95
2023-04-21T01:24:41.907Z,11.15
2023-04-21T01:27:10.262Z,16.30
2023-04-21T01:29:37.421Z,11.95
2023-04-21T01:32:05.624Z,11.52
2023-04-21T01:34:33.212Z,18.08
2023-04-21T01:37:00.506Z,14.40
2023-04-21T01:39:27.881Z,16.13
2023-04-21T01:41:57.752Z,16.27
2023-04-21T01:44:25.873Z,9.50
2023-04-21T01:46:53.424Z,21.30
2023-04-21T01:49:20.746Z,13.85
2023-04-21T01:51:48.113Z,13.73
2023-04-21T01:54:15.271Z,11.43
2023-04-21T01:56:42.537Z,11.10
2023-04-21T01:59:09.739Z,10.95
2023-04-21T02:01:36.907Z,11.57
2023-04-21T02:04:04.999Z,13.60
2023-04-21T02:06:32.530Z,18.95
2023-04-21T02:08:59.944Z,13.88
2023-04-21T02:11:27.084Z,22.95
2023-04-21T02:13:54.474Z,11.07
2023-04-21T02:16:21.883Z,21.80
2023-04-21T02:18:49.040Z,12.60
2023-04-21T02:21:16.140Z,12.90
2023-04-21T02:23:43.258Z,16.63
2023-04-21T02:26:10.379Z,13.88
2023-04-21T02:28:37.443Z,13.27
2023-04-21T02:31:04.670Z,16.98
2023-04-21T02:33:31.865Z,15.20
2023-04-21T02:35:59.042Z,15.23
2023-04-21T02:38:26.388Z,21.05
2023-04-21T02:40:53.500Z,15.50
2023-04-21T02:43:20.579Z,16.52
2023-04-21T02:45:47.729Z,11.50
2023-04-21T02:48:14.890Z,15.30
2023-04-21T02:50:43.627Z,15.75
2023-04-21T02:53:10.761Z,13.65
2023-04-21T02:55:37.843Z,15.98
2023-04-21T02:58:04.970Z,19.17
2023-04-21T03:00:32.126Z,12.77
2023-04-21T03:02:59.393Z,13.57
2023-04-21T03:05:26.587Z,13.90
2023-04-21T03:07:53.751Z,13.18
2023-04-21T03:10:21.149Z,18.10
2023-04-21T03:12:48.260Z,14.18
2023-04-21T03:15:15.699Z,9.70
2023-04-21T03:17:42.963Z,14.75
2023-04-21T03:20:10.792Z,14.98
2023-04-21T03:22:38.562Z,14.25
2023-04-21T03:25:07.259Z,16.38
2023-04-21T03:27:34.998Z,18.63
2023-04-21T03:30:02.170Z,14.68
2023-04-21T03:32:29.307Z,11.43
2023-04-21T03:34:56.488Z,13.75
2023-04-21T03:37:23.830Z,14.52
2023-04-21T03:39:50.967Z,10.90
2023-04-21T03:42:18.045Z,15.23
2023-04-21T03:44:45.214Z,15.55
2023-04-21T03:47:12.317Z,12.60
2023-04-21T03:49:39.395Z,17.67
2023-04-21T03:52:06.557Z,13.55
2023-04-21T03:54:33.707Z,12.32
2023-04-21T03:57:00.882Z,16.67
2023-04-21T03:59:28.050Z,13.73
2023-04-21T04:01:55.130Z,14.07
2023-04-21T04:04:22.403Z,17.15
2023-04-21T04:06:49.843Z,12.88
2023-04-21T04:09:17.110Z,13.05
2023-04-21T04:11:44.342Z,18.80
2023-04-21T04:14:11.457Z,18.30
2023-04-21T04:16:38.604Z,15.38
2023-04-21T04:19:05.730Z,19.52
2023-04-21T04:21:33.424Z,11.43
2023-04-21T04:24:02.372Z,15.25
2023-04-21T04:26:29.535Z,21.95
2023-04-21T04:28:56.799Z,12.82
2023-04-21T04:31:25.258Z,17.67
2023-04-21T04:33:54.973Z,16.65
2023-04-21T04:36:22.877Z,16.25
2023-04-21T04:38:49.959Z,9.30
2023-04-21T04:41:17.084Z,18.95
2023-04-21T04:43:44.246Z,22.33
2023-04-21T04:46:12.979Z,11.52
2023-04-21T04:48:40.747Z,12.02
2023-04-21T04:51:08.032Z,17.77
2023-04-21T04:53:35.286Z,19.20
2023-04-21T04:56:02.483Z,17.55
2023-04-21T04:58:29.604Z,13.27
2023-04-21T05:00:56.711Z,11.13
2023-04-21T05:03:23.880Z,16.58
2023-04-21T05:05:51.154Z,19.65
2023-04-21T05:08:18.381Z,13.68
2023-04-21T05:10:45.516Z,18.05
2023-04-21T05:13:12.646Z,15.75
2023-04-21T05:15:39.746Z,19.20
2023-04-21T05:18:07.757Z,19.58
2023-04-21T05:20:35.110Z,13.80
2023-04-21T05:23:02.191Z,14.00
2023-04-21T05:25:29.611Z,22.00
2023-04-21T05:27:56.787Z,14.50
2023-04-21T05:30:23.962Z,16.55
2023-04-21T05:32:51.664Z,15.95
2023-04-21T05:35:18.956Z,13.13
2023-04-21T05:37:46.280Z,18.33
2023-04-21T05:40:13.404Z,16.02
2023-04-21T05:42:40.596Z,18.08
2023-04-21T05:45:07.947Z,15.73
2023-04-21T05:47:35.317Z,15.93
2023-04-21T05:50:02.468Z,14.95
2023-04-21T05:52:29.517Z,15.75
2023-04-21T05:54:56.673Z,14.57
2023-04-21T05:57:23.833Z,11.50
2023-04-21T05:59:50.896Z,13.48
2023-04-21T06:02:18.099Z,21.48
2023-04-21T06:04:45.617Z,13.95
2023-04-21T06:07:13.708Z,16.73
2023-04-21T06:09:41.421Z,18.13
2023-04-21T06:12:08.912Z,17.40
2023-04-21T06:14:36.049Z,13.20
2023-04-21T06:17:03.155Z,14.13
2023-04-21T06:19:30.387Z,16.73
2023-04-21T06:21:58.050Z,14.13
2023-04-21T06:24:25.716Z,15.68
2023-04-21T06:26:53.580Z,18.58
2023-04-21T06:29:20.982Z,17.73
2023-04-21T06:31:48.346Z,13.65
2023-04-21T06:34:16.215Z,13.65
2023-04-21T06:36:43.389Z,14.70
2023-04-21T06:39:10.854Z,16.83
2023-04-21T06:41:38.009Z,10.82
2023-04-21T06:44:05.150Z,21.10
2023-04-21T06:46:32.297Z,15.73
2023-04-21T06:48:59.523Z,12.75
2023-04-21T06:51:26.590Z,20.42
2023-04-21T06:53:53.666Z,19.30
2023-04-21T06:56:21.278Z,13.88
2023-04-21T06:58:48.371Z,12.93
2023-04-21T07:01:15.582Z,16.65
2023-04-21T07:03:42.850Z,15.43
2023-04-21T07:06:10.092Z,20.83
2023-04-21T07:08:37.370Z,18.95
2023-04-21T07:11:04.586Z,15.05
2023-04-21T07:13:31.679Z,19.85
2023-04-21T07:15:59.004Z,18.27
2023-04-21T07:18:26.325Z,16.75
2023-04-21T07:20:53.510Z,12.13
2023-04-21T07:23:20.662Z,16.20
2023-04-21T07:25:47.820Z,19.33
2023-04-21T07:28:16.198Z,16.77
2023-04-21T07:30:43.686Z,15.38
2023-04-21T07:33:10.931Z,13.25
2023-04-21T07:35:38.239Z,13.00
2023-04-21T07:38:05.437Z,15.38
2023-04-21T07:40:32.629Z,20.42
2023-04-21T07:42:59.768Z,13.80
2023-04-21T07:45:27.015Z,14.80
2023-04-21T07:47:54.164Z,20.23
2023-04-21T07:50:21.294Z,14.07
2023-04-21T07:52:48.418Z,20.13
2023-04-21T07:55:15.811Z,16.10
2023-04-21T07:57:43.056Z,9.82
2023-04-21T08:00:10.760Z,12.27
2023-04-21T08:02:38.051Z,14.00
2023-04-21T08:05:05.681Z,14.13
2023-04-21T08:07:32.858Z,13.00
2023-04-21T08:10:00.332Z,11.15
2023-04-21T08:12:27.650Z,11.80
2023-04-21T08:14:58.034Z,12.80
2023-04-21T08:17:25.457Z,8.32
2023-04-21T08:19:52.704Z,24.58
2023-04-21T08:22:19.834Z,11.35
2023-04-21T08:24:47.042Z,15.77
2023-04-21T08:27:14.127Z,8.15
2023-04-21T08:29:41.184Z,8.82
2023-04-21T08:32:08.423Z,12.38
2023-04-21T08:34:35.658Z,12.32
2023-04-21T08:37:02.863Z,9.20
2023-04-21T08:39:30.062Z,15.27
2023-04-21T08:41:58.327Z,13.80
2023-04-21T08:44:25.053Z,13.80
2023-04-21T08:46:52.068Z,18.65
2023-04-21T08:49:20.806Z,24.48
2023-04-21T08:51:47.935Z,19.13
2023-04-21T08:54:14.616Z,15.45
2023-04-21T08:56:41.394Z,13.57
2023-04-21T08:59:08.174Z,9.18
2023-04-21T09:02:11.333Z,11.57
2023-04-21T09:04:40.208Z,14.30
2023-04-21T09:07:08.762Z,8.13
2023-04-21T09:09:56.391Z,11.80
2023-04-21T09:12:23.719Z,10.82
2023-04-21T09:14:51.380Z,10.45
2023-04-21T09:17:22.960Z,11.63
2023-04-21T09:19:49.720Z,11.80
2023-04-21T09:22:18.041Z,12.07
2023-04-21T09:24:46.925Z,8.55
2023-04-21T09:27:16.282Z,7.72
2023-04-21T09:29:48.416Z,12.60
2023-04-21T09:32:19.525Z,12.40
2023-04-21T09:34:46.708Z,10.70
2023-04-21T09:37:17.274Z,7.10
2023-04-21T09:40:03.467Z,11.48
2023-04-21T09:42:32.734Z,11.80
2023-04-21T09:45:10.934Z,11.88
2023-04-21T09:47:53.141Z,20.65
2023-04-21T09:50:39.356Z,7.95
2023-04-21T09:53:15.288Z,7.50
2023-04-21T09:55:42.417Z,10.48
2023-04-21T09:58:12.734Z,8.43
2023-04-21T10:00:41.042Z,14.93
2023-04-21T10:03:12.120Z,7.72
2023-04-21T10:05:42.065Z,12.45
2023-04-21T10:08:11.720Z,10.23
2023-04-21T10:10:39.575Z,10.45
2023-04-21T10:13:07.026Z,9.05
2023-04-21T10:15:42.247Z,9.30
2023-04-21T10:18:25.165Z,10.25
2023-04-21T10:20:54.776Z,9.05
2023-04-21T10:23:37.852Z,8.10
2023-04-21T10:26:09.894Z,13.30
2023-04-21T10:29:09.560Z,8.75
2023-04-21T10:31:55.335Z,12.75
2023-04-21T10:34:36.508Z,12.63
2023-04-21T10:37:06.306Z,7.00
2023-04-21T10:39:51.387Z,11.07
2023-04-21T10:42:30.036Z,10.13
2023-04-21T10:44:56.744Z,8.52
2023-04-21T10:47:31.502Z,11.00
2023-04-21T10:49:59.238Z,15.75
2023-04-21T10:52:33.625Z,9.85
2023-04-21T10:55:07.365Z,17.60
2023-04-21T10:57:35.548Z,14.43
2023-04-21T11:00:06.206Z,11.70
2023-04-21T11:02:38.329Z,19.73
2023-04-21T11:05:08.922Z,12.48
2023-04-21T11:07:35.671Z,9.05
2023-04-21T11:10:07.857Z,16.67
2023-04-21T11:12:38.055Z,15.50
2023-04-21T11:15:07.664Z,9.00
2023-04-21T11:17:35.460Z,10.07
2023-04-21T11:20:04.546Z,18.60
2023-04-21T11:22:31.234Z,13.30
2023-04-21T11:24:58.742Z,10.63
2023-04-21T11:27:30.849Z,9.23
2023-04-21T11:29:57.627Z,10.43
2023-04-21T11:32:24.698Z,14.63
2023-04-21T11:34:51.625Z,9.40
2023-04-21T11:37:27.946Z,12.52
2023-04-21T11:39:59.539Z,12.10
2023-04-21T11:42:26.378Z,13.32
2023-04-21T11:44:57.909Z,12.85
2023-04-21T11:47:26.814Z,20.52
2023-04-21T11:49:56.339Z,12.45
2023-04-21T11:52:33.041Z,12.10
2023-04-21T11:55:19.936Z,11.50
2023-04-21T11:57:46.796Z,20.85
2023-04-21T12:00:14.539Z,12.00
2023-04-21T12:02:41.719Z,15.57
2023-04-21T12:05:11.380Z,15.68
2023-04-21T12:07:40.948Z,14.27
2023-04-21T12:10:16.897Z,13.10
2023-04-21T12:12:44.260Z,12.45
2023-04-21T12:15:12.969Z,16.08
2023-04-21T12:17:44.192Z,17.13
2023-04-21T12:22:37.797Z,15.85
2023-04-21T12:25:05.855Z,15.18
2023-04-21T12:27:32.710Z,13.23
2023-04-21T12:29:59.423Z,12.18
2023-04-21T12:32:26.459Z,15.40
2023-04-21T12:34:53.207Z,20.00
2023-04-21T12:37:19.998Z,17.80
2023-04-21T12:39:46.718Z,14.48
2023-04-21T12:42:13.385Z,16.20
2023-04-21T12:44:40.651Z,13.10
2023-04-21T12:47:07.543Z,15.95
2023-04-21T12:49:34.273Z,22.20
2023-04-21T12:52:01.060Z,13.73
2023-04-21T12:54:27.814Z,15.25
2023-04-21T12:56:54.516Z,16.70
2023-04-21T12:59:21.541Z,12.55
2023-04-21T13:01:48.409Z,13.02
2023-04-21T13:04:15.458Z,13.48
2023-04-21T13:06:42.278Z,12.55
2023-04-21T13:09:09.047Z,12.95
2023-04-21T13:11:35.818Z,16.45
2023-04-21T13:14:04.078Z,11.60
2023-04-21T13:16:31.471Z,11.40
2023-04-21T13:18:58.384Z,11.10
2023-04-21T13:21:25.079Z,16.20
2023-04-21T13:23:51.868Z,29.88
2023-04-21T13:26:18.814Z,21.58
2023-04-21T13:28:46.100Z,13.27
2023-04-21T13:31:14.478Z,10.55
2023-04-21T13:33:42.097Z,13.75
2023-04-21T13:36:12.564Z,22.08
2023-04-21T13:38:40.866Z,13.27
2023-04-21T13:41:08.246Z,13.85
2023-04-21T13:43:35.184Z,14.40
2023-04-21T13:46:02.154Z,15.15
2023-04-21T13:48:29.800Z,10.50
2023-04-21T13:50:56.719Z,16.77
2023-04-21T13:53:23.441Z,18.45
2023-04-21T13:55:50.718Z,23.02
2023-04-21T13:58:17.890Z,14.95
2023-04-21T14:00:44.765Z,13.98
2023-04-21T14:03:11.901Z,23.15
2023-04-21T14:05:39.333Z,13.75
2023-04-21T14:08:06.329Z,13.30
2023-04-21T14:10:33.043Z,14.02
2023-04-21T14:12:59.945Z,15.32
2023-04-21T14:15:27.022Z,11.85
2023-04-21T14:17:53.921Z,14.98
2023-04-21T14:20:21.250Z,17.73
2023-04-21T14:22:48.195Z,13.55
2023-04-21T14:25:15.050Z,17.00
2023-04-21T14:27:42.008Z,12.35
2023-04-21T14:30:10.590Z,20.05
2023-04-21T14:32:37.510Z,15.07
2023-04-21T14:35:05.624Z,19.90
2023-04-21T14:37:33.181Z,12.85
2023-04-21T14:40:00.042Z,18.98
2023-04-21T14:42:26.835Z,11.45
2023-04-21T14:44:53.701Z,18.10
2023-04-21T14:47:21.639Z,18.77
2023-04-21T14:49:53.951Z,16.58
2023-04-21T14:52:24.668Z,17.55
2023-04-21T14:54:51.500Z,20.10
2023-04-21T14:57:21.129Z,15.65
2023-04-21T14:59:50.330Z,17.73
2023-04-21T15:02:17.633Z,21.30
2023-04-21T15:04:44.734Z,19.80
2023-04-21T15:07:11.873Z,16.88
2023-04-21T15:09:39.243Z,20.25
2023-04-21T15:12:06.336Z,16.90
2023-04-21T15:14:33.288Z,18.30
2023-04-21T15:17:00.042Z,18.13
2023-04-21T15:19:26.881Z,22.75
2023-04-21T15:21:53.612Z,19.98
2023-04-21T15:24:20.445Z,18.88
2023-04-21T15:26:47.186Z,17.15
2023-04-21T15:29:14.058Z,22.50
2023-04-21T15:31:41.078Z,18.48
2023-04-21T15:34:08.174Z,15.32
2023-04-21T15:36:35.012Z,13.80
2023-04-21T15:39:01.698Z,18.77
2023-04-21T15:41:31.139Z,16.52
2023-04-21T15:44:01.028Z,17.58
2023-04-21T15:46:27.950Z,13.38
2023-04-21T15:48:54.707Z,20.38
2023-04-21T15:51:21.502Z,12.38
2023-04-21T15:53:49.354Z,18.90
2023-04-21T15:56:17.100Z,15.88
2023-04-21T15:58:43.808Z,17.35
2023-04-21T16:01:10.766Z,13.75
2023-04-21T16:03:37.899Z,14.32
2023-04-21T16:06:05.615Z,24.70
2023-04-21T16:08:33.351Z,14.40
2023-04-21T16:11:00.999Z,12.38
2023-04-21T16:13:28.109Z,14.35
2023-04-21T16:15:54.958Z,10.50
2023-04-21T16:18:21.921Z,13.88
2023-04-21T16:20:49.168Z,17.33
2023-04-21T16:23:17.840Z,14.45
2023-04-21T16:25:45.110Z,16.33
2023-04-21T16:28:12.388Z,17.58
2023-04-21T16:30:43.284Z,11.10
2023-04-21T16:35:39.122Z,13.45
2023-04-21T16:38:06.399Z,13.50
2023-04-21T16:40:33.619Z,14.18
2023-04-21T16:43:00.469Z,13.63
2023-04-21T16:45:28.760Z,15.48
2023-04-21T16:47:55.806Z,19.85
2023-04-21T16:50:22.796Z,14.32
2023-04-21T16:52:49.606Z,12.30
2023-04-21T16:55:16.443Z,11.80
2023-04-21T16:57:43.171Z,16.05
2023-04-21T17:00:10.651Z,13.32
2023-04-21T17:02:37.590Z,15.57
2023-04-21T17:05:05.088Z,17.30
2023-04-21T17:07:32.111Z,19.77
2023-04-21T17:09:59.037Z,18.55
2023-04-21T17:12:25.879Z,18.75
2023-04-21T17:14:52.602Z,13.38
2023-04-21T17:17:19.380Z,14.63
2023-04-21T17:19:46.157Z,18.90
2023-04-21T17:22:12.815Z,15.75
2023-04-21T17:24:51.898Z,16.25
2023-04-21T17:27:20.232Z,19.02
2023-04-21T17:29:47.141Z,18.92
2023-04-21T17:32:14.491Z,16.85
2023-04-21T17:34:41.377Z,15.60
2023-04-21T17:37:08.232Z,15.88
2023-04-21T17:39:34.954Z,15.35
2023-04-21T17:42:02.594Z,20.25
2023-04-21T17:44:29.547Z,19.40
2023-04-21T17:46:56.661Z,21.63
2023-04-21T17:49:24.818Z,21.85
2023-04-21T17:51:51.826Z,17.17
2023-04-21T17:54:18.666Z,20.65
2023-04-21T17:56:46.352Z,16.45
2023-04-21T17:59:13.451Z,18.83
2023-04-21T18:01:40.733Z,21.10
2023-04-21T18:04:07.954Z,18.77
2023-04-21T18:06:35.718Z,15.70
2023-04-21T18:09:04.405Z,24.10
2023-04-21T18:11:31.242Z,19.55
2023-04-21T18:13:57.948Z,22.33
2023-04-21T18:16:25.539Z,19.70
2023-04-21T18:18:52.369Z,19.73
2023-04-21T18:21:19.199Z,23.20
2023-04-21T18:23:45.905Z,19.00
2023-04-21T18:26:12.576Z,22.05
2023-04-21T18:28:39.313Z,14.15
2023-04-21T18:31:06.137Z,16.98
2023-04-21T18:33:32.971Z,15.85
2023-04-21T18:35:59.688Z,13.45
2023-04-21T18:38:26.366Z,22.92
2023-04-21T18:40:53.131Z,21.58
2023-04-21T18:43:19.940Z,14.98
2023-04-21T18:45:48.043Z,22.05
2023-04-21T18:48:14.822Z,22.10
2023-04-21T18:50:41.695Z,21.92
2023-04-21T18:53:08.868Z,17.02
2023-04-21T18:55:36.508Z,16.30
2023-04-21T18:58:03.488Z,16.33
2023-04-21T19:00:32.070Z,17.23
2023-04-21T19:03:02.533Z,15.13
2023-04-21T19:05:31.468Z,14.52
2023-04-21T19:07:58.637Z,14.95
2023-04-21T19:10:26.102Z,15.82
2023-04-21T19:12:53.056Z,20.42
2023-04-21T19:15:21.372Z,20.02
2023-04-21T19:17:48.123Z,18.45
2023-04-21T19:20:14.848Z,16.95
2023-04-21T19:22:42.033Z,16.42
2023-04-21T19:25:09.290Z,16.92
2023-04-21T19:27:36.526Z,18.80
2023-04-21T19:30:05.035Z,19.50
2023-04-21T19:32:31.880Z,19.77
2023-04-21T19:34:58.668Z,17.58
2023-04-21T19:37:26.455Z,20.60
2023-04-21T19:39:53.300Z,17.15
2023-04-21T19:42:19.998Z,21.55
2023-04-21T19:44:46.654Z,22.73
2023-04-21T19:47:13.592Z,20.90
2023-04-21T19:49:40.413Z,20.95
2023-04-21T19:52:07.101Z,21.88
2023-04-21T19:54:33.817Z,21.25
2023-04-21T19:57:01.411Z,20.85
2023-04-21T19:59:28.118Z,24.05
2023-04-21T20:01:55.248Z,23.13
2023-04-21T20:04:22.241Z,22.65
2023-04-21T20:06:49.058Z,23.00
2023-04-21T20:09:16.100Z,25.92
2023-04-21T20:11:42.901Z,23.60
2023-04-21T20:14:09.570Z,25.25
2023-04-21T20:16:37.067Z,26.92
2023-04-21T20:19:04.578Z,27.63
2023-04-21T20:21:32.350Z,29.23
2023-04-21T20:23:59.083Z,24.85
2023-04-21T20:26:25.963Z,23.30
2023-04-21T20:28:52.656Z,30.13
2023-04-21T20:31:24.020Z,32.97
2023-04-21T20:33:51.136Z,25.17
2023-04-21T20:36:18.410Z,36.05
2023-04-21T20:38:46.491Z,31.92
2023-04-21T20:41:13.490Z,27.80
2023-04-21T20:43:40.397Z,31.90
2023-04-21T20:46:08.827Z,27.67
2023-04-21T20:48:35.907Z,22.33
2023-04-21T20:51:02.762Z,24.73
2023-04-21T20:53:29.475Z,29.23
2023-04-21T20:55:56.284Z,21.67
2023-04-21T20:58:24.721Z,30.75
2023-04-21T21:00:51.579Z,24.13
2023-04-21T21:03:20.275Z,18.60
2023-04-21T21:05:47.505Z,22.50
2023-04-21T21:08:15.202Z,21.60
2023-04-21T21:10:42.113Z,19.83
2023-04-21T21:13:08.845Z,19.67
2023-04-21T21:15:35.878Z,26.15
2023-04-21T21:18:02.929Z,19.13
2023-04-21T21:20:29.708Z,25.70
2023-04-21T21:22:56.548Z,25.85
2023-04-21T21:25:23.325Z,21.13
2023-04-21T21:27:50.059Z,19.35
2023-04-21T21:30:16.841Z,19.75
2023-04-21T21:32:43.637Z,18.42
2023-04-21T21:35:11.802Z,25.55
2023-04-21T21:37:38.936Z,22.65
2023-04-21T21:40:06.899Z,22.15
2023-04-21T21:42:33.595Z,22.80
2023-04-21T21:45:00.963Z,19.20
2023-04-21T21:47:27.856Z,25.85
2023-04-21T21:49:55.952Z,21.88
2023-04-21T21:52:22.855Z,21.17
2023-04-21T21:54:49.631Z,15.88
2023-04-21T21:57:16.844Z,23.25
2023-04-21T21:59:43.856Z,18.52
2023-04-21T22:02:10.736Z,20.67
2023-04-21T22:04:37.908Z,22.17
2023-04-21T22:07:05.143Z,17.65
2023-04-21T22:09:32.035Z,19.17
2023-04-21T22:11:59.687Z,19.23
2023-04-21T22:14:26.652Z,27.60
2023-04-21T22:16:53.898Z,21.65
2023-04-21T22:19:20.979Z,19.95
2023-04-21T22:21:47.999Z,23.45
2023-04-21T22:24:14.956Z,17.92
2023-04-21T22:26:43.081Z,19.33
2023-04-21T22:29:10.336Z,24.17
2023-04-21T22:31:37.932Z,22.30
2023-04-21T22:34:04.911Z,23.33
2023-04-21T22:36:32.652Z,27.25
2023-04-21T22:38:59.600Z,21.52
2023-04-21T22:41:27.378Z,19.80
2023-04-21T22:43:54.267Z,22.77
2023-04-21T22:46:21.016Z,23.67
2023-04-21T22:48:48.425Z,17.00
2023-04-21T22:51:15.164Z,19.17
2023-04-21T22:53:41.813Z,24.65
2023-04-21T22:56:08.493Z,21.30
2023-04-21T22:58:35.890Z,21.08
2023-04-21T23:01:02.877Z,21.30
2023-04-21T23:03:31.116Z,22.35
2023-04-21T23:05:58.478Z,22.25
2023-04-21T23:08:25.211Z,22.50
2023-04-21T23:10:52.611Z,21.52
2023-04-21T23:13:19.637Z,21.25
2023-04-21T23:15:46.364Z,23.73
2023-04-21T23:18:13.047Z,18.70
2023-04-21T23:20:39.796Z,22.20
2023-04-21T23:23:06.521Z,26.33
2023-04-21T23:25:33.257Z,24.10
2023-04-21T23:28:00.059Z,24.65
2023-04-21T23:30:26.853Z,23.08
2023-04-21T23:32:54.018Z,23.10
2023-04-21T23:35:21.427Z,26.48
2023-04-21T23:37:48.804Z,25.00
2023-04-21T23:40:16.113Z,23.10
2023-04-21T23:42:47.421Z,31.00
2023-04-21T23:45:15.077Z,22.52
2023-04-21T23:47:42.321Z,22.67
2023-04-21T23:50:09.667Z,23.45
2023-04-21T23:52:36.357Z,24.42
2023-04-21T23:55:03.571Z,25.25
2023-04-21T23:57:30.695Z,24.13
2023-04-21T23:59:58.021Z,22.67
